createdAt,value
2019-04-25T00:01:31.965Z,99620.92
2019-04-25T00:04:06.585Z,99625.84
2019-04-25T00:06:42.567Z,99632.56
2019-04-25T00:09:17.462Z,99622.98
2019-04-25T00:11:53.486Z,99633.23
2019-04-25T00:14:26.430Z,99637.55
2019-04-25T00:16:59.241Z,99638.48
2019-04-25T00:19:31.671Z,99642.51
2019-04-25T00:22:12.198Z,99640.81
2019-04-25T00:25:15.070Z,99636.02
2019-04-25T00:27:36.974Z,99627.66
2019-04-25T00:30:08.676Z,99624.47
2019-04-25T00:32:42.124Z,99624.42
2019-04-25T00:35:13.961Z,99628.44
2019-04-25T00:37:46.186Z,99628.92
2019-04-25T00:40:18.160Z,99619.72
2019-04-25T00:42:50.694Z,99618.36
2019-04-25T00:45:23.552Z,99631.55
2019-04-25T00:47:55.417Z,99641.02
2019-04-25T00:50:27.157Z,99635.03
2019-04-25T00:52:58.925Z,99634.48
2019-04-25T00:55:31.470Z,99641.22
2019-04-25T00:58:09.225Z,99645.34
2019-04-25T01:01:15.796Z,99647.18
2019-04-25T01:03:49.314Z,99649.80
2019-04-25T01:06:22.058Z,99655.97
2019-04-25T01:08:55.795Z,99649.52
2019-04-25T01:11:27.078Z,99653.06
2019-04-25T01:13:58.932Z,99648.88
2019-04-25T01:16:31.855Z,99643.95
2019-04-25T01:19:03.742Z,99642.03
2019-04-25T01:21:35.667Z,99635.16
2019-04-25T01:24:07.512Z,99636.08
2019-04-25T01:26:39.075Z,99640.40
2019-04-25T01:29:11.431Z,99635.69
2019-04-25T01:31:43.535Z,99632.75
2019-04-25T01:34:16.915Z,99630.38
2019-04-25T01:36:57.103Z,99628.91
2019-04-25T01:39:39.384Z,99638.19
2019-04-25T01:42:25.363Z,99635.41
2019-04-25T01:45:00.799Z,99643.06
2019-04-25T01:47:33.620Z,99652.54
2019-04-25T01:50:06.731Z,99642.53
2019-04-25T01:52:38.379Z,99646.08
2019-04-25T01:55:10.493Z,99643.47
2019-04-25T01:57:45.005Z,99645.92
2019-04-25T02:00:19.997Z,99646.28
2019-04-25T02:02:54.572Z,99642.36
2019-04-25T02:05:26.889Z,99632.33
2019-04-25T02:07:59.269Z,99632.81
2019-04-25T02:10:31.525Z,99644.37
2019-04-25T02:13:06.030Z,99649.92
2019-04-25T02:15:38.235Z,99647.22
2019-04-25T02:18:10.208Z,99655.16
2019-04-25T02:20:43.532Z,99664.78
2019-04-25T02:23:15.310Z,99653.97
2019-04-25T02:25:46.899Z,99658.91
2019-04-25T02:28:18.769Z,99662.98
2019-04-25T02:30:50.382Z,99657.04
2019-04-25T02:33:24.244Z,99658.91
2019-04-25T02:35:59.381Z,99662.67
2019-04-25T02:38:29.344Z,99665.62
2019-04-25T02:41:02.808Z,99664.52
2019-04-25T02:43:35.041Z,99673.53
2019-04-25T02:46:38.880Z,99676.08
2019-04-25T02:49:35.772Z,99680.41
2019-04-25T02:52:09.712Z,99687.82
2019-04-25T02:54:39.986Z,99686.61
2019-04-25T02:57:11.586Z,99690.53
2019-04-25T02:59:45.147Z,99700.97
2019-04-25T03:02:17.081Z,99709.16
2019-04-25T03:04:48.739Z,99710.14
2019-04-25T03:07:20.416Z,99715.85
2019-04-25T03:09:52.147Z,99717.39
2019-04-25T03:12:32.416Z,99729.65
2019-04-25T03:14:58.298Z,99725.26
2019-04-25T03:17:30.189Z,99717.16
2019-04-25T03:20:36.343Z,99718.53
2019-04-25T03:23:26.880Z,99709.84
2019-04-25T03:25:59.221Z,99710.69
2019-04-25T03:28:31.551Z,99709.07
2019-04-25T03:31:08.651Z,99711.77
2019-04-25T03:33:38.394Z,99704.97
2019-04-25T03:36:10.391Z,99699.90
2019-04-25T03:38:42.114Z,99693.09
2019-04-25T03:41:14.779Z,99687.84
2019-04-25T03:43:46.742Z,99685.48
2019-04-25T03:46:18.416Z,99679.45
2019-04-25T03:48:50.143Z,99669.58
2019-04-25T03:51:22.042Z,99664.59
2019-04-25T03:53:53.905Z,99652.55
2019-04-25T03:56:25.593Z,99656.48
2019-04-25T03:58:57.558Z,99643.37
2019-04-25T04:01:29.408Z,99642.53
2019-04-25T04:04:01.155Z,99645.55
2019-04-25T04:06:33.973Z,99651.47
2019-04-25T04:09:07.897Z,99654.09
2019-04-25T04:11:40.056Z,99671.42
2019-04-25T04:14:12.956Z,99672.38
2019-04-25T04:17:05.062Z,99682.77
2019-04-25T04:19:45.263Z,99690.10
2019-04-25T04:22:24.477Z,99699.95
2019-04-25T04:24:57.721Z,99705.53
2019-04-25T04:27:29.343Z,99711.17
2019-04-25T04:30:01.033Z,99726.73
2019-04-25T04:32:34.027Z,99740.92
2019-04-25T04:35:06.544Z,99759.97
2019-04-25T04:37:39.198Z,99773.02
2019-04-25T04:40:11.638Z,99786.30
2019-04-25T04:42:43.823Z,99788.43
2019-04-25T04:45:18.268Z,99784.11
2019-04-25T04:47:53.408Z,99777.84
2019-04-25T04:50:25.561Z,99783.95
2019-04-25T04:52:57.337Z,99787.87
2019-04-25T04:55:29.740Z,99785.25
2019-04-25T04:58:04.250Z,99788.20
2019-04-25T05:00:36.105Z,99785.81
2019-04-25T05:03:16.943Z,99784.34
2019-04-25T05:06:01.155Z,99776.34
2019-04-25T05:08:35.813Z,99768.01
2019-04-25T05:11:07.544Z,99766.77
2019-04-25T05:13:39.162Z,99746.31
2019-04-25T05:16:11.187Z,99744.25
2019-04-25T05:18:43.838Z,99726.81
2019-04-25T05:21:17.184Z,99726.48
2019-04-25T05:23:49.167Z,99723.11
2019-04-25T05:26:21.071Z,99716.85
2019-04-25T05:28:53.305Z,99711.08
2019-04-25T05:31:32.122Z,99699.11
2019-04-25T05:34:03.781Z,99688.48
2019-04-25T05:36:38.616Z,99686.37
2019-04-25T05:39:15.687Z,99685.59
2019-04-25T05:42:01.998Z,99682.14
2019-04-25T05:44:34.347Z,99676.11
2019-04-25T05:47:06.215Z,99679.20
2019-04-25T05:49:38.212Z,99687.22
2019-04-25T05:52:09.831Z,99699.17
2019-04-25T05:54:41.604Z,99701.94
2019-04-25T05:57:13.835Z,99711.09
2019-04-25T05:59:45.884Z,99712.00
2019-04-25T06:02:24.457Z,99715.05
2019-04-25T06:05:01.519Z,99716.33
2019-04-25T06:07:38.178Z,99739.02
2019-04-25T06:10:22.087Z,99743.31
2019-04-25T06:13:28.799Z,99746.74
2019-04-25T06:16:07.177Z,99745.12
2019-04-25T06:19:13.572Z,99749.55
2019-04-25T06:21:43.389Z,99752.55
2019-04-25T06:24:36.840Z,99753.77
2019-04-25T06:27:28.475Z,99748.47
2019-04-25T06:30:04.418Z,99760.92
2019-04-25T06:32:36.552Z,99751.87
2019-04-25T06:35:08.931Z,99741.46
2019-04-25T06:37:40.834Z,99737.55
2019-04-25T06:40:13.705Z,99731.02
2019-04-25T06:42:46.790Z,99733.10
2019-04-25T06:45:39.018Z,99726.09
2019-04-25T06:48:35.639Z,99722.33
2019-04-25T06:51:07.674Z,99729.20
2019-04-25T06:53:39.310Z,99731.70
2019-04-25T06:56:10.976Z,99731.70
2019-04-25T06:58:43.809Z,99732.75
2019-04-25T07:01:15.817Z,99733.14
2019-04-25T07:03:47.488Z,99732.95
2019-04-25T07:06:19.737Z,99724.41
2019-04-25T07:08:51.656Z,99725.58
2019-04-25T07:11:24.873Z,99708.00
2019-04-25T07:13:56.907Z,99702.55
2019-04-25T07:16:29.392Z,99700.44
2019-04-25T07:19:01.142Z,99700.12
2019-04-25T07:21:34.465Z,99696.34
2019-04-25T07:24:06.680Z,99697.95
2019-04-25T07:27:06.982Z,99697.24
2019-04-25T07:29:56.299Z,99700.50
2019-04-25T07:32:54.411Z,99696.74
2019-04-25T07:35:26.757Z,99693.97
2019-04-25T07:37:58.776Z,99688.87
2019-04-25T07:40:30.674Z,99685.76
2019-04-25T07:43:03.195Z,99686.02
2019-04-25T07:45:36.818Z,99676.52
2019-04-25T07:48:08.554Z,99671.59
2019-04-25T07:50:40.268Z,99677.76
2019-04-25T07:53:14.217Z,99669.94
2019-04-25T07:55:45.819Z,99666.25
2019-04-25T07:58:17.567Z,99670.37
2019-04-25T08:00:49.259Z,99663.03
2019-04-25T08:03:21.530Z,99683.28
2019-04-25T08:05:53.414Z,99690.88
2019-04-25T08:08:25.217Z,99685.48
2019-04-25T08:11:04.061Z,99697.04
2019-04-25T08:13:55.206Z,99679.34
2019-04-25T08:16:28.886Z,99676.34
2019-04-25T08:19:03.991Z,99678.27
2019-04-25T08:21:36.661Z,99671.78
2019-04-25T08:24:08.681Z,99669.62
2019-04-25T08:26:40.482Z,99674.92
2019-04-25T08:29:13.294Z,99670.34
2019-04-25T08:31:45.360Z,99666.11
2019-04-25T08:34:17.266Z,99664.30
2019-04-25T08:36:49.307Z,99659.09
2019-04-25T08:39:21.100Z,99660.30
2019-04-25T08:41:53.909Z,99660.65
2019-04-25T08:44:25.966Z,99653.34
2019-04-25T08:46:57.691Z,99652.09
2019-04-25T08:49:49.607Z,99654.55
2019-04-25T08:52:21.339Z,99655.92
2019-04-25T08:54:58.529Z,99656.19
2019-04-25T08:58:07.750Z,99650.45
2019-04-25T09:00:59.178Z,99644.09
2019-04-25T09:03:32.332Z,99641.88
2019-04-25T09:06:04.485Z,99647.47
2019-04-25T09:08:38.133Z,99651.37
2019-04-25T09:11:10.027Z,99637.05
2019-04-25T09:13:43.842Z,99638.70
2019-04-25T09:16:16.377Z,99639.19
2019-04-25T09:18:48.312Z,99635.18
2019-04-25T09:21:19.964Z,99620.90
2019-04-25T09:23:53.474Z,99624.47
2019-04-25T09:26:25.045Z,99604.71
2019-04-25T09:28:57.103Z,99611.28
2019-04-25T09:31:28.998Z,99619.39
2019-04-25T09:34:01.345Z,99597.54
2019-04-25T09:36:33.646Z,99597.46
2019-04-25T09:39:17.473Z,99588.67
2019-04-25T09:41:49.293Z,99590.98
2019-04-25T09:44:25.467Z,99570.30
2019-04-25T09:46:57.250Z,99574.47
2019-04-25T09:49:36.903Z,99563.76
2019-04-25T09:52:13.415Z,99552.72
2019-04-25T09:55:00.919Z,99550.45
2019-04-25T09:57:53.117Z,99534.76
2019-04-25T10:00:33.553Z,99530.97
2019-04-25T10:03:05.258Z,99539.11
2019-04-25T10:05:38.360Z,99536.44
2019-04-25T10:08:10.177Z,99531.67
2019-04-25T10:10:43.490Z,99519.63
2019-04-25T10:13:15.304Z,99506.39
2019-04-25T10:16:15.253Z,99515.90
2019-04-25T10:18:47.629Z,99507.38
2019-04-25T10:21:19.506Z,99508.01
2019-04-25T10:23:53.383Z,99501.49
2019-04-25T10:26:25.724Z,99505.07
2019-04-25T10:28:57.511Z,99504.10
2019-04-25T10:31:29.166Z,99506.48
2019-04-25T10:34:00.883Z,99498.78
2019-04-25T10:36:33.649Z,99488.28
2019-04-25T10:39:10.779Z,99480.42
2019-04-25T10:41:41.293Z,99481.61
2019-04-25T10:44:14.110Z,99487.12
2019-04-25T10:46:47.286Z,99482.50
2019-04-25T10:49:19.167Z,99462.87
2019-04-25T10:51:50.967Z,99464.12
2019-04-25T10:54:22.874Z,99468.05
2019-04-25T10:56:54.608Z,99455.03
2019-04-25T10:59:26.302Z,99448.38
2019-04-25T11:01:58.065Z,99439.39
2019-04-25T11:04:48.854Z,99445.11
2019-04-25T11:07:21.054Z,99435.42
2019-04-25T11:09:53.966Z,99426.55
2019-04-25T11:12:26.914Z,99429.20
2019-04-25T11:14:58.976Z,99426.53
2019-04-25T11:17:30.786Z,99430.04
2019-04-25T11:20:03.596Z,99419.32
2019-04-25T11:22:36.246Z,99420.32
2019-04-25T11:25:08.986Z,99411.10
2019-04-25T11:27:40.727Z,99418.25
2019-04-25T11:30:13.923Z,99421.73
2019-04-25T11:32:45.712Z,99415.80
2019-04-25T11:35:17.719Z,99412.09
2019-04-25T11:37:51.330Z,99413.05
2019-04-25T11:40:37.470Z,99410.30
2019-04-25T11:43:09.374Z,99406.59
2019-04-25T11:45:41.187Z,99395.18
2019-04-25T11:48:13.491Z,99396.83
2019-04-25T11:50:48.991Z,99390.38
2019-04-25T11:53:20.187Z,99401.72
2019-04-25T11:55:53.486Z,99392.94
2019-04-25T11:58:26.046Z,99393.48
2019-04-25T12:00:58.112Z,99379.25
2019-04-25T12:03:29.903Z,99367.60
2019-04-25T12:06:01.562Z,99357.59
2019-04-25T12:08:34.029Z,99364.27
2019-04-25T12:11:05.978Z,99361.03
2019-04-25T12:13:38.119Z,99362.78
2019-04-25T12:16:09.833Z,99353.66
2019-04-25T12:18:41.701Z,99348.76
2019-04-25T12:21:13.697Z,99344.84
2019-04-25T12:23:47.398Z,99340.97
2019-04-25T12:26:19.869Z,99327.97
2019-04-25T12:28:51.535Z,99326.57
2019-04-25T12:31:23.804Z,99322.81
2019-04-25T12:33:56.343Z,99327.83
2019-04-25T12:36:29.061Z,99319.94
2019-04-25T12:39:01.153Z,99316.59
2019-04-25T12:41:33.338Z,99311.72
2019-04-25T12:44:17.749Z,99310.20
2019-04-25T12:46:50.506Z,99304.14
2019-04-25T12:49:23.828Z,99291.83
2019-04-25T12:51:55.548Z,99287.10
2019-04-25T12:54:27.351Z,99284.56
2019-04-25T12:56:59.889Z,99284.50
2019-04-25T12:59:32.106Z,99286.80
2019-04-25T13:02:04.583Z,99283.86
2019-04-25T13:04:36.356Z,99276.08
2019-04-25T13:07:09.154Z,99278.52
2019-04-25T13:09:40.852Z,99276.27
2019-04-25T13:12:14.468Z,99269.00
2019-04-25T13:14:46.535Z,99264.17
2019-04-25T13:17:19.142Z,99267.66
2019-04-25T13:19:51.020Z,99255.27
2019-04-25T13:22:22.956Z,99254.64
2019-04-25T13:24:55.297Z,99244.12
2019-04-25T13:27:36.447Z,99239.49
2019-04-25T13:30:28.149Z,99234.22
2019-04-25T13:33:10.379Z,99242.44
2019-04-25T13:35:57.610Z,99236.72
2019-04-25T13:38:29.344Z,99240.90
2019-04-25T13:41:01.590Z,99228.78
2019-04-25T13:43:33.408Z,99224.56
2019-04-25T13:46:05.114Z,99216.30
2019-04-25T13:48:37.773Z,99211.74
2019-04-25T13:51:09.593Z,99212.25
2019-04-25T13:53:40.481Z,99206.03
2019-04-25T13:56:10.436Z,99209.19
2019-04-25T13:58:42.242Z,99203.27
2019-04-25T14:01:17.517Z,99204.61
2019-04-25T14:03:49.263Z,99196.53
2019-04-25T14:06:21.520Z,99191.98
2019-04-25T14:08:53.535Z,99191.28
2019-04-25T14:11:25.928Z,99187.38
2019-04-25T14:13:57.728Z,99183.44
2019-04-25T14:16:48.627Z,99176.52
2019-04-25T14:19:48.523Z,99181.82
2019-04-25T14:22:22.146Z,99180.02
2019-04-25T14:24:54.219Z,99173.00
2019-04-25T14:27:26.563Z,99172.27
2019-04-25T14:29:58.483Z,99163.86
2019-04-25T14:32:30.390Z,99167.61
2019-04-25T14:35:03.414Z,99159.72
2019-04-25T14:37:39.567Z,99156.83
2019-04-25T14:40:09.537Z,99158.60
2019-04-25T14:42:41.276Z,99157.88
2019-04-25T14:45:13.410Z,99146.80
2019-04-25T14:47:45.309Z,99155.27
2019-04-25T14:50:16.972Z,99150.10
2019-04-25T14:52:49.707Z,99151.64
2019-04-25T14:55:43.297Z,99147.46
2019-04-25T14:58:17.493Z,99150.48
2019-04-25T15:00:50.905Z,99147.46
2019-04-25T15:03:23.114Z,99144.48
2019-04-25T15:05:55.767Z,99144.34
2019-04-25T15:08:28.590Z,99147.36
2019-04-25T15:11:00.400Z,99142.48
2019-04-25T15:13:32.131Z,99145.50
2019-04-25T15:16:04.943Z,99140.73
2019-04-25T15:18:46.469Z,99139.19
2019-04-25T15:21:10.591Z,99147.08
2019-04-25T15:23:42.782Z,99141.47
2019-04-25T15:26:14.827Z,99138.68
2019-04-25T15:28:46.924Z,99137.74
2019-04-25T15:31:18.613Z,99132.13
2019-04-25T15:33:50.418Z,99125.02
2019-04-25T15:36:38.728Z,99122.94
2019-04-25T15:39:42.115Z,99120.98
2019-04-25T15:42:36.687Z,99110.84
2019-04-25T15:45:31.183Z,99108.57
2019-04-25T15:48:04.399Z,99109.05
2019-04-25T15:50:36.218Z,99100.83
2019-04-25T15:53:07.968Z,99108.67
2019-04-25T15:55:40.797Z,99109.01
2019-04-25T15:58:12.579Z,99112.81
2019-04-25T16:00:44.551Z,99143.08
2019-04-25T16:03:16.679Z,99148.55
2019-04-25T16:05:48.483Z,99146.49
2019-04-25T16:08:20.182Z,99148.70
2019-04-25T16:10:52.896Z,99154.31
2019-04-25T16:13:24.564Z,99164.94
2019-04-25T16:15:57.004Z,99176.39
2019-04-25T16:18:28.776Z,99181.95
2019-04-25T16:21:00.651Z,99189.89
2019-04-25T16:23:32.366Z,99203.83
2019-04-25T16:26:05.414Z,99211.53
2019-04-25T16:28:37.120Z,99214.22
2019-04-25T16:31:10.776Z,99217.88
2019-04-25T16:33:42.439Z,99231.59
2019-04-25T16:36:14.391Z,99234.56
2019-04-25T16:38:46.098Z,99244.70
2019-04-25T16:41:18.557Z,99257.24
2019-04-25T16:43:54.026Z,99259.57
2019-04-25T16:46:26.542Z,99272.98
2019-04-25T16:48:58.199Z,99285.72
2019-04-25T16:51:30.819Z,99298.22
2019-04-25T16:54:02.754Z,99308.35
2019-04-25T16:56:35.310Z,99307.13
2019-04-25T16:59:07.020Z,99323.06
2019-04-25T17:01:38.927Z,99320.60
2019-04-25T17:04:10.740Z,99327.48
2019-04-25T17:06:42.478Z,99334.99
2019-04-25T17:09:14.498Z,99325.61
2019-04-25T17:11:47.205Z,99335.48
2019-04-25T17:14:40.787Z,99330.30
2019-04-25T17:17:27.616Z,99333.94
2019-04-25T17:20:17.187Z,99334.39
2019-04-25T17:22:48.984Z,99347.70
2019-04-25T17:25:20.728Z,99352.84
2019-04-25T17:27:53.067Z,99374.16
2019-04-25T17:30:27.299Z,99388.27
2019-04-25T17:33:17.944Z,99400.14
2019-04-25T17:36:00.784Z,99406.19
2019-04-25T17:38:38.600Z,99412.03
2019-04-25T17:41:10.167Z,99431.09
2019-04-25T17:43:42.673Z,99439.92
2019-04-25T17:46:16.092Z,99454.27
2019-04-25T17:48:47.715Z,99476.80
2019-04-25T17:51:19.368Z,99472.22
2019-04-25T17:53:51.198Z,99483.43
2019-04-25T17:56:22.810Z,99491.27
2019-04-25T17:58:55.361Z,99504.09
2019-04-25T18:01:27.518Z,99517.98
2019-04-25T18:03:59.207Z,99520.31
2019-04-25T18:06:31.075Z,99533.72
2019-04-25T18:09:02.853Z,99541.01
2019-04-25T18:11:34.793Z,99553.28
2019-04-25T18:14:07.599Z,99563.57
2019-04-25T18:16:43.531Z,99572.13
2019-04-25T18:19:19.451Z,99584.16
2019-04-25T18:21:51.212Z,99588.47
2019-04-25T18:24:41.197Z,99584.27
2019-04-25T18:27:19.201Z,99603.38
2019-04-25T18:29:51.310Z,99596.13
2019-04-25T18:32:24.751Z,99617.70
2019-04-25T18:35:01.098Z,99623.44
2019-04-25T18:38:10.029Z,99633.64
2019-04-25T18:41:01.079Z,99637.92
2019-04-25T18:43:57.561Z,99632.92
2019-04-25T18:46:33.663Z,99636.44
2019-04-25T18:49:05.557Z,99642.00
2019-04-25T18:51:38.464Z,99658.68
2019-04-25T18:54:19.387Z,99660.40
2019-04-25T18:57:22.262Z,99668.74
2019-04-25T19:00:00.288Z,99687.43
2019-04-25T19:02:49.225Z,99689.75
2019-04-25T19:05:47.198Z,99693.73
2019-04-25T19:08:19.405Z,99696.13
2019-04-25T19:10:51.639Z,99712.88
2019-04-25T19:13:24.160Z,99719.35
2019-04-25T19:15:56.041Z,99722.83
2019-04-25T19:18:27.893Z,99727.05
2019-04-25T19:21:00.133Z,99730.04
2019-04-25T19:23:32.131Z,99740.36
2019-04-25T19:26:04.077Z,99743.94
2019-04-25T19:28:35.799Z,99745.28
2019-04-25T19:31:07.698Z,99740.77
2019-04-25T19:33:40.640Z,99750.53
2019-04-25T19:36:13.527Z,99771.31
2019-04-25T19:38:45.936Z,99764.67
2019-04-25T19:41:33.642Z,99772.34
2019-04-25T19:44:08.611Z,99757.89
2019-04-25T19:46:42.870Z,99765.63
2019-04-25T19:49:15.326Z,99757.87
2019-04-25T19:51:48.159Z,99767.33
2019-04-25T19:54:20.468Z,99779.30
2019-04-25T19:57:04.928Z,99776.89
2019-04-25T19:59:36.864Z,99775.30
2019-04-25T20:02:15.675Z,99784.64
2019-04-25T20:04:56.183Z,99797.69
2019-04-25T20:07:33.020Z,99793.20
2019-04-25T20:10:42.809Z,99804.11
2019-04-25T20:13:15.750Z,99811.05
2019-04-25T20:15:47.640Z,99806.41
2019-04-25T20:18:19.828Z,99790.50
2019-04-25T20:20:52.033Z,99791.55
2019-04-25T20:23:25.417Z,99796.69
2019-04-25T20:25:57.606Z,99799.55
2019-04-25T20:28:29.559Z,99811.64
2019-04-25T20:31:01.573Z,99811.02
2019-04-25T20:33:33.551Z,99811.72
2019-04-25T20:36:17.053Z,99827.77
2019-04-25T20:38:39.217Z,99833.46
2019-04-25T20:41:11.049Z,99832.80
2019-04-25T20:43:42.824Z,99829.62
2019-04-25T20:46:14.626Z,99833.80
2019-04-25T20:48:46.875Z,99840.59
2019-04-25T20:51:19.059Z,99844.41
2019-04-25T20:53:51.222Z,99843.30
2019-04-25T20:56:23.141Z,99849.24
2019-04-25T20:58:55.603Z,99854.92
2019-04-25T21:01:27.535Z,99853.57
2019-04-25T21:04:13.381Z,99861.42
2019-04-25T21:06:45.249Z,99867.48
2019-04-25T21:09:17.387Z,99868.59
2019-04-25T21:11:49.889Z,99876.35
2019-04-25T21:14:27.696Z,99872.13
2019-04-25T21:17:06.565Z,99863.16
2019-04-25T21:19:41.772Z,99867.42
2019-04-25T21:22:13.520Z,99850.95
2019-04-25T21:24:45.597Z,99845.77
2019-04-25T21:27:17.326Z,99842.02
2019-04-25T21:29:49.253Z,99844.83
2019-04-25T21:32:22.662Z,99850.33
2019-04-25T21:34:55.189Z,99857.01
2019-04-25T21:37:26.978Z,99852.88
2019-04-25T21:40:15.604Z,99841.77
2019-04-25T21:42:56.155Z,99846.00
2019-04-25T21:45:28.224Z,99838.77
2019-04-25T21:48:00.807Z,99830.17
2019-04-25T21:50:32.845Z,99835.10
2019-04-25T21:53:04.833Z,99842.52
2019-04-25T21:55:37.297Z,99835.83
2019-04-25T21:58:09.271Z,99831.41
2019-04-25T22:01:00.165Z,99831.31
2019-04-25T22:03:32.002Z,99837.44
2019-04-25T22:06:05.165Z,99833.83
2019-04-25T22:08:36.983Z,99810.09
2019-04-25T22:11:09.036Z,99819.44
2019-04-25T22:13:41.203Z,99826.59
2019-04-25T22:16:13.139Z,99829.33
2019-04-25T22:18:44.950Z,99836.59
2019-04-25T22:21:16.998Z,99837.53
2019-04-25T22:23:49.135Z,99833.78
2019-04-25T22:26:21.468Z,99841.87
2019-04-25T22:28:53.410Z,99851.78
2019-04-25T22:32:18.607Z,99862.63
2019-04-25T22:35:10.217Z,99872.69
2019-04-25T22:38:09.693Z,99884.11
2019-04-25T22:48:53.472Z,99873.81
2019-04-25T22:51:50.308Z,99870.42
2019-04-25T22:54:53.377Z,99858.00
2019-04-25T22:57:50.553Z,99847.66
2019-04-25T23:01:15.785Z,99831.55
2019-04-25T23:05:04.379Z,99838.25
2019-04-25T23:07:54.837Z,99852.98
2019-04-25T23:10:56.651Z,99847.91
2019-04-25T23:14:18.936Z,99824.87
2019-04-25T23:20:38.393Z,99835.19
2019-04-25T23:23:32.274Z,99843.28
2019-04-25T23:26:52.180Z,99850.50
2019-04-25T23:29:44.736Z,99847.64
2019-04-25T23:32:30.572Z,99872.66
2019-04-25T23:35:36.619Z,99872.47
2019-04-25T23:38:19.863Z,99870.07
2019-04-25T23:41:22.451Z,99858.80
2019-04-25T23:44:12.830Z,99855.86
2019-04-25T23:46:56.748Z,99852.65
2019-04-25T23:49:42.982Z,99857.72
2019-04-25T23:52:41.415Z,99859.23
2019-04-25T23:56:03.489Z,99860.31
2019-04-25T23:58:49.351Z,99877.61
